sensor_id;sensor_type;location;lat;lon;timestamp;pressure;altitude;pressure_sealevel;temperature;humidity
11124;BME280;5616;42.692;23.312;2023-04-10T00:01:46;95240.44;;;8.62;78.16
11124;BME280;5616;42.692;23.312;2023-04-10T00:04:13;95237.13;;;8.45;78.11
11124;BME280;5616;42.692;23.312;2023-04-10T00:06:41;95235.81;;;8.49;78.86
11124;BME280;5616;42.692;23.312;2023-04-10T00:09:09;95243.19;;;8.60;77.50
11124;BME280;5616;42.692;23.312;2023-04-10T00:11:36;95234.84;;;8.58;77.14
11124;BME280;5616;42.692;23.312;2023-04-10T00:14:02;95235.59;;;8.67;77.02
11124;BME280;5616;42.692;23.312;2023-04-10T00:16:29;95235.59;;;8.67;76.51
11124;BME280;5616;42.692;23.312;2023-04-10T00:18:57;95227.75;;;8.69;76.06
11124;BME280;5616;42.692;23.312;2023-04-10T00:21:24;95221.28;;;8.73;75.09
11124;BME280;5616;42.692;23.312;2023-04-10T00:23:51;95227.56;;;8.70;76.84
11124;BME280;5616;42.692;23.312;2023-04-10T00:26:18;95228.88;;;8.66;74.58
11124;BME280;5616;42.692;23.312;2023-04-10T00:28:45;95224.22;;;8.53;73.41
11124;BME280;5616;42.692;23.312;2023-04-10T00:31:12;95226.63;;;8.63;73.43
11124;BME280;5616;42.692;23.312;2023-04-10T00:33:39;95219.06;;;8.61;73.92
11124;BME280;5616;42.692;23.312;2023-04-10T00:36:07;95225.03;;;8.54;73.89
11124;BME280;5616;42.692;23.312;2023-04-10T00:38:34;95219.41;;;8.58;72.02
11124;BME280;5616;42.692;23.312;2023-04-10T00:41:02;95220.00;;;8.69;71.57
11124;BME280;5616;42.692;23.312;2023-04-10T00:43:29;95232.75;;;8.54;69.90
11124;BME280;5616;42.692;23.312;2023-04-10T00:45:56;95217.94;;;8.56;67.46
11124;BME280;5616;42.692;23.312;2023-04-10T00:48:23;95222.31;;;8.47;68.71
11124;BME280;5616;42.692;23.312;2023-04-10T00:50:50;95225.84;;;8.54;66.10
11124;BME280;5616;42.692;23.312;2023-04-10T00:53:19;95223.75;;;8.58;66.28
11124;BME280;5616;42.692;23.312;2023-04-10T00:55:47;95219.84;;;8.62;66.37
11124;BME280;5616;42.692;23.312;2023-04-10T00:58:15;95218.91;;;8.55;69.25
11124;BME280;5616;42.692;23.312;2023-04-10T01:00:42;95216.97;;;8.65;70.52
11124;BME280;5616;42.692;23.312;2023-04-10T01:03:10;95210.22;;;8.56;72.48
11124;BME280;5616;42.692;23.312;2023-04-10T01:05:42;95210.69;;;8.59;74.12
11124;BME280;5616;42.692;23.312;2023-04-10T01:08:13;95210.69;;;8.68;73.57
11124;BME280;5616;42.692;23.312;2023-04-10T01:10:47;95201.56;;;8.41;76.96
11124;BME280;5616;42.692;23.312;2023-04-10T01:13:22;95201.13;;;8.37;79.30
11124;BME280;5616;42.692;23.312;2023-04-10T01:16:00;95202.88;;;8.13;82.69
11124;BME280;5616;42.692;23.312;2023-04-10T01:18:33;95199.19;;;7.99;83.68
11124;BME280;5616;42.692;23.312;2023-04-10T01:21:04;95200.81;;;8.00;85.91
11124;BME280;5616;42.692;23.312;2023-04-10T01:23:59;95205.78;;;7.93;87.33
11124;BME280;5616;42.692;23.312;2023-04-10T01:26:55;95198.38;;;7.98;88.13
11124;BME280;5616;42.692;23.312;2023-04-10T01:29:31;95197.75;;;8.13;89.27
11124;BME280;5616;42.692;23.312;2023-04-10T01:32:01;95200.13;;;8.14;88.80
11124;BME280;5616;42.692;23.312;2023-04-10T01:34:33;95192.28;;;8.08;87.90
11124;BME280;5616;42.692;23.312;2023-04-10T01:37:03;95190.19;;;8.11;89.61
11124;BME280;5616;42.692;23.312;2023-04-10T01:39:32;95194.03;;;8.23;87.57
11124;BME280;5616;42.692;23.312;2023-04-10T01:42:04;95187.63;;;8.27;86.24
11124;BME280;5616;42.692;23.312;2023-04-10T01:44:40;95198.03;;;8.42;86.46
11124;BME280;5616;42.692;23.312;2023-04-10T01:47:07;95195.13;;;8.53;84.40
11124;BME280;5616;42.692;23.312;2023-04-10T01:49:37;95202.50;;;8.56;82.07
11124;BME280;5616;42.692;23.312;2023-04-10T01:52:10;95201.22;;;8.52;82.36
11124;BME280;5616;42.692;23.312;2023-04-10T01:54:38;95203.63;;;8.53;81.89
11124;BME280;5616;42.692;23.312;2023-04-10T01:57:05;95194.97;;;8.46;82.83
11124;BME280;5616;42.692;23.312;2023-04-10T01:59:44;95208.16;;;8.51;81.28
11124;BME280;5616;42.692;23.312;2023-04-10T02:02:11;95206.06;;;8.55;81.25
11124;BME280;5616;42.692;23.312;2023-04-10T02:04:38;95202.53;;;8.48;83.19
11124;BME280;5616;42.692;23.312;2023-04-10T02:07:09;95205.06;;;8.56;82.71
11124;BME280;5616;42.692;23.312;2023-04-10T02:09:46;95187.25;;;8.46;81.30
11124;BME280;5616;42.692;23.312;2023-04-10T02:12:20;95193.19;;;8.55;79.66
11124;BME280;5616;42.692;23.312;2023-04-10T02:14:51;95184.47;;;8.56;82.90
11124;BME280;5616;42.692;23.312;2023-04-10T02:17:25;95177.75;;;8.55;82.27
11124;BME280;5616;42.692;23.312;2023-04-10T02:19:54;95177.25;;;8.59;81.91
11124;BME280;5616;42.692;23.312;2023-04-10T02:22:22;95179.50;;;8.63;80.86
11124;BME280;5616;42.692;23.312;2023-04-10T02:24:50;95168.53;;;8.69;82.79
11124;BME280;5616;42.692;23.312;2023-04-10T02:27:26;95164.81;;;8.71;82.53
11124;BME280;5616;42.692;23.312;2023-04-10T02:29:54;95175.28;;;8.61;81.38
11124;BME280;5616;42.692;23.312;2023-04-10T02:32:22;95170.97;;;8.62;80.45
11124;BME280;5616;42.692;23.312;2023-04-10T02:34:49;95172.13;;;8.51;81.68
11124;BME280;5616;42.692;23.312;2023-04-10T02:37:15;95159.53;;;8.65;82.52
11124;BME280;5616;42.692;23.312;2023-04-10T02:39:42;95167.25;;;8.65;81.29
11124;BME280;5616;42.692;23.312;2023-04-10T02:42:09;95161.19;;;8.49;81.38
11124;BME280;5616;42.692;23.312;2023-04-10T02:44:36;95159.16;;;8.29;80.27
11124;BME280;5616;42.692;23.312;2023-04-10T02:47:05;95152.22;;;8.45;79.89
11124;BME280;5616;42.692;23.312;2023-04-10T02:49:34;95154.91;;;8.52;79.74
11124;BME280;5616;42.692;23.312;2023-04-10T02:52:09;95149.09;;;8.58;80.45
11124;BME280;5616;42.692;23.312;2023-04-10T02:54:36;95150.69;;;8.59;80.34
11124;BME280;5616;42.692;23.312;2023-04-10T02:57:03;95146.66;;;8.65;80.42
11124;BME280;5616;42.692;23.312;2023-04-10T02:59:31;95148.94;;;8.59;79.30
11124;BME280;5616;42.692;23.312;2023-04-10T03:02:00;95141.84;;;8.61;79.34
11124;BME280;5616;42.692;23.312;2023-04-10T03:04:32;95146.34;;;8.59;78.96
11124;BME280;5616;42.692;23.312;2023-04-10T03:06:59;95135.00;;;8.85;84.20
11124;BME280;5616;42.692;23.312;2023-04-10T03:09:26;95144.97;;;8.80;79.94
11124;BME280;5616;42.692;23.312;2023-04-10T03:11:53;95147.81;;;8.54;78.53
11124;BME280;5616;42.692;23.312;2023-04-10T03:14:19;95147.25;;;8.28;79.68
11124;BME280;5616;42.692;23.312;2023-04-10T03:16:46;95145.16;;;8.39;79.86
11124;BME280;5616;42.692;23.312;2023-04-10T03:19:14;95152.22;;;8.45;78.70
11124;BME280;5616;42.692;23.312;2023-04-10T03:21:44;95151.91;;;8.32;80.34
11124;BME280;5616;42.692;23.312;2023-04-10T03:24:11;95154.34;;;8.34;80.03
11124;BME280;5616;42.692;23.312;2023-04-10T03:26:38;95149.66;;;8.37;80.58
11124;BME280;5616;42.692;23.312;2023-04-10T03:29:05;95142.25;;;8.26;81.02
11124;BME280;5616;42.692;23.312;2023-04-10T03:31:33;95145.97;;;8.32;82.00
11124;BME280;5616;42.692;23.312;2023-04-10T03:34:00;95154.47;;;8.32;81.13
11124;BME280;5616;42.692;23.312;2023-04-10T03:36:27;95151.56;;;8.35;81.77
11124;BME280;5616;42.692;23.312;2023-04-10T03:38:55;95150.63;;;8.36;82.36
11124;BME280;5616;42.692;23.312;2023-04-10T03:41:21;95154.16;;;8.35;82.15
11124;BME280;5616;42.692;23.312;2023-04-10T03:43:50;95153.69;;;8.32;82.89
11124;BME280;5616;42.692;23.312;2023-04-10T03:46:17;95158.34;;;8.28;83.90
11124;BME280;5616;42.692;23.312;2023-04-10T03:48:44;95162.84;;;8.26;84.72
11124;BME280;5616;42.692;23.312;2023-04-10T03:51:10;95165.41;;;8.26;83.75
11124;BME280;5616;42.692;23.312;2023-04-10T03:53:37;95155.63;;;8.22;84.69
11124;BME280;5616;42.692;23.312;2023-04-10T03:56:10;95161.75;;;8.13;83.94
11124;BME280;5616;42.692;23.312;2023-04-10T03:58:39;95164.50;;;8.03;85.33
11124;BME280;5616;42.692;23.312;2023-04-10T04:01:06;95172.69;;;7.90;85.28
11124;BME280;5616;42.692;23.312;2023-04-10T04:03:44;95170.47;;;7.79;85.80
11124;BME280;5616;42.692;23.312;2023-04-10T04:06:29;95169.97;;;7.76;86.04
11124;BME280;5616;42.692;23.312;2023-04-10T04:09:31;95179.28;;;7.61;88.32
11124;BME280;5616;42.692;23.312;2023-04-10T04:12:22;95183.44;;;7.62;86.91
11124;BME280;5616;42.692;23.312;2023-04-10T04:14:59;95185.72;;;7.65;87.07
11124;BME280;5616;42.692;23.312;2023-04-10T04:17:52;95184.44;;;7.69;87.08
11124;BME280;5616;42.692;23.312;2023-04-10T04:20:51;95181.38;;;7.57;87.49
11124;BME280;5616;42.692;23.312;2023-04-10T04:23:32;95179.31;;;7.69;86.72
11124;BME280;5616;42.692;23.312;2023-04-10T04:26:05;95184.28;;;7.78;87.29
11124;BME280;5616;42.692;23.312;2023-04-10T04:28:52;95179.13;;;7.86;87.45
11124;BME280;5616;42.692;23.312;2023-04-10T04:31:29;95182.19;;;7.98;86.77
11124;BME280;5616;42.692;23.312;2023-04-10T04:34:32;95183.28;;;7.95;87.36
11124;BME280;5616;42.692;23.312;2023-04-10T04:37:20;95181.69;;;7.86;87.63
11124;BME280;5616;42.692;23.312;2023-04-10T04:40:06;95186.03;;;7.86;88.22
11124;BME280;5616;42.692;23.312;2023-04-10T04:42:46;95193.41;;;7.89;87.01
11124;BME280;5616;42.692;23.312;2023-04-10T04:45:34;95199.06;;;8.00;87.22
11124;BME280;5616;42.692;23.312;2023-04-10T04:48:04;95196.78;;;8.06;86.07
11124;BME280;5616;42.692;23.312;2023-04-10T04:51:05;95193.91;;;8.00;86.91
11124;BME280;5616;42.692;23.312;2023-04-10T04:53:55;95183.78;;;7.91;86.29
11124;BME280;5616;42.692;23.312;2023-04-10T04:56:47;95195.00;;;8.06;85.80
11124;BME280;5616;42.692;23.312;2023-04-10T04:59:40;95194.38;;;8.28;85.38
11124;BME280;5616;42.692;23.312;2023-04-10T05:02:34;95201.75;;;8.39;83.54
11124;BME280;5616;42.692;23.312;2023-04-10T05:05:27;95205.44;;;8.53;82.30
11124;BME280;5616;42.692;23.312;2023-04-10T05:08:17;95204.63;;;8.52;82.11
11124;BME280;5616;42.692;23.312;2023-04-10T05:11:06;95209.44;;;8.55;82.31
11124;BME280;5616;42.692;23.312;2023-04-10T05:13:56;95212.28;;;8.69;81.65
11124;BME280;5616;42.692;23.312;2023-04-10T05:16:41;95207.44;;;8.74;81.55
11124;BME280;5616;42.692;23.312;2023-04-10T05:19:38;95205.81;;;8.81;82.17
11124;BME280;5616;42.692;23.312;2023-04-10T05:22:34;95209.72;;;8.69;81.81
11124;BME280;5616;42.692;23.312;2023-04-10T05:25:13;95209.50;;;8.78;81.72
11124;BME280;5616;42.692;23.312;2023-04-10T05:28:01;95214.59;;;8.94;80.75
11124;BME280;5616;42.692;23.312;2023-04-10T05:31:06;95206.19;;;9.08;80.14
11124;BME280;5616;42.692;23.312;2023-04-10T05:33:53;95207.53;;;9.27;78.40
11124;BME280;5616;42.692;23.312;2023-04-10T05:36:38;95210.41;;;9.32;77.74
11124;BME280;5616;42.692;23.312;2023-04-10T05:39:17;95209.31;;;9.49;76.65
11124;BME280;5616;42.692;23.312;2023-04-10T05:42:02;95208.13;;;9.60;76.09
11124;BME280;5616;42.692;23.312;2023-04-10T05:44:46;95216.56;;;9.76;75.00
11124;BME280;5616;42.692;23.312;2023-04-10T05:47:31;95208.78;;;9.84;75.75
11124;BME280;5616;42.692;23.312;2023-04-10T05:50:19;95215.09;;;9.82;75.89
11124;BME280;5616;42.692;23.312;2023-04-10T05:53:09;95211.56;;;9.98;75.61
11124;BME280;5616;42.692;23.312;2023-04-10T05:55:43;95219.25;;;10.06;73.29
11124;BME280;5616;42.692;23.312;2023-04-10T05:58:34;95221.59;;;10.15;72.99
11124;BME280;5616;42.692;23.312;2023-04-10T06:01:13;95223.25;;;10.31;73.72
11124;BME280;5616;42.692;23.312;2023-04-10T06:03:46;95222.34;;;10.38;73.77
11124;BME280;5616;42.692;23.312;2023-04-10T06:06:15;95225.59;;;10.55;72.78
11124;BME280;5616;42.692;23.312;2023-04-10T06:08:43;95232.59;;;10.32;73.08
11124;BME280;5616;42.692;23.312;2023-04-10T06:11:10;95219.47;;;10.56;72.94
11124;BME280;5616;42.692;23.312;2023-04-10T06:13:38;95223.75;;;10.93;71.45
11124;BME280;5616;42.692;23.312;2023-04-10T06:16:05;95213.53;;;11.21;70.19
11124;BME280;5616;42.692;23.312;2023-04-10T06:18:33;95218.84;;;11.34;68.86
11124;BME280;5616;42.692;23.312;2023-04-10T06:20:59;95219.69;;;11.20;70.22
11124;BME280;5616;42.692;23.312;2023-04-10T06:23:27;95207.91;;;11.32;70.42
11124;BME280;5616;42.692;23.312;2023-04-10T06:25:55;95212.59;;;11.43;69.93
11124;BME280;5616;42.692;23.312;2023-04-10T06:28:22;95214.19;;;10.93;69.65
11124;BME280;5616;42.692;23.312;2023-04-10T06:30:53;95205.13;;;10.68;70.61
11124;BME280;5616;42.692;23.312;2023-04-10T06:33:28;95207.69;;;10.97;70.82
11124;BME280;5616;42.692;23.312;2023-04-10T06:35:55;95204.56;;;11.17;68.76
11124;BME280;5616;42.692;23.312;2023-04-10T06:38:22;95209.16;;;11.21;66.59
11124;BME280;5616;42.692;23.312;2023-04-10T06:40:50;95218.69;;;11.21;68.21
11124;BME280;5616;42.692;23.312;2023-04-10T06:43:18;95212.81;;;11.27;66.61
11124;BME280;5616;42.692;23.312;2023-04-10T06:45:45;95214.75;;;11.39;66.14
11124;BME280;5616;42.692;23.312;2023-04-10T06:48:11;95226.41;;;11.35;66.67
11124;BME280;5616;42.692;23.312;2023-04-10T06:50:39;95219.22;;;11.31;66.49
11124;BME280;5616;42.692;23.312;2023-04-10T06:53:06;95223.06;;;11.35;67.67
11124;BME280;5616;42.692;23.312;2023-04-10T06:55:33;95220.03;;;11.31;66.23
11124;BME280;5616;42.692;23.312;2023-04-10T06:57:59;95227.91;;;10.94;68.60
11124;BME280;5616;42.692;23.312;2023-04-10T07:00:28;95223.19;;;10.97;69.75
11124;BME280;5616;42.692;23.312;2023-04-10T07:02:55;95226.66;;;10.75;68.79
11124;BME280;5616;42.692;23.312;2023-04-10T07:05:21;95223.38;;;10.81;68.50
11124;BME280;5616;42.692;23.312;2023-04-10T07:07:48;95223.47;;;10.73;68.42
11124;BME280;5616;42.692;23.312;2023-04-10T07:10:16;95219.19;;;10.80;69.43
11124;BME280;5616;42.692;23.312;2023-04-10T07:12:42;95223.53;;;10.94;68.48
11124;BME280;5616;42.692;23.312;2023-04-10T07:15:10;95224.06;;;11.04;66.77
11124;BME280;5616;42.692;23.312;2023-04-10T07:17:38;95225.22;;;11.17;66.47
11124;BME280;5616;42.692;23.312;2023-04-10T07:20:06;95230.41;;;11.17;66.18
11124;BME280;5616;42.692;23.312;2023-04-10T07:22:33;95221.75;;;11.24;67.57
11124;BME280;5616;42.692;23.312;2023-04-10T07:25:00;95222.25;;;11.20;66.92
11124;BME280;5616;42.692;23.312;2023-04-10T07:27:27;95226.00;;;11.17;68.37
11124;BME280;5616;42.692;23.312;2023-04-10T07:29:54;95227.44;;;10.90;66.74
11124;BME280;5616;42.692;23.312;2023-04-10T07:32:21;95232.97;;;11.02;66.30
11124;BME280;5616;42.692;23.312;2023-04-10T07:34:50;95229.94;;;10.98;66.76
11124;BME280;5616;42.692;23.312;2023-04-10T07:37:16;95230.00;;;11.20;66.27
11124;BME280;5616;42.692;23.312;2023-04-10T07:39:43;95225.03;;;11.18;64.07
11124;BME280;5616;42.692;23.312;2023-04-10T07:42:10;95231.06;;;11.40;63.22
11124;BME280;5616;42.692;23.312;2023-04-10T07:44:37;95223.75;;;11.79;63.17
11124;BME280;5616;42.692;23.312;2023-04-10T07:47:04;95227.06;;;11.94;62.30
11124;BME280;5616;42.692;23.312;2023-04-10T07:49:31;95226.38;;;12.07;62.00
11124;BME280;5616;42.692;23.312;2023-04-10T07:51:59;95230.13;;;12.25;61.64
11124;BME280;5616;42.692;23.312;2023-04-10T07:54:26;95230.94;;;12.54;59.70
11124;BME280;5616;42.692;23.312;2023-04-10T07:56:52;95222.63;;;12.58;59.79
11124;BME280;5616;42.692;23.312;2023-04-10T07:59:19;95221.84;;;12.37;60.49
11124;BME280;5616;42.692;23.312;2023-04-10T08:01:46;95225.13;;;12.45;61.99
11124;BME280;5616;42.692;23.312;2023-04-10T08:04:13;95221.75;;;12.79;59.84
11124;BME280;5616;42.692;23.312;2023-04-10T08:06:39;95227.38;;;12.89;60.04
11124;BME280;5616;42.692;23.312;2023-04-10T08:09:08;95223.50;;;13.06;59.70
11124;BME280;5616;42.692;23.312;2023-04-10T08:11:35;95226.47;;;12.69;60.09
11124;BME280;5616;42.692;23.312;2023-04-10T08:14:02;95220.72;;;12.18;61.93
11124;BME280;5616;42.692;23.312;2023-04-10T08:16:31;95225.66;;;12.13;61.12
11124;BME280;5616;42.692;23.312;2023-04-10T08:18:59;95226.47;;;11.71;62.05
11124;BME280;5616;42.692;23.312;2023-04-10T08:21:27;95222.03;;;11.86;61.79
11124;BME280;5616;42.692;23.312;2023-04-10T08:23:57;95213.94;;;11.96;62.23
11124;BME280;5616;42.692;23.312;2023-04-10T08:26:26;95217.84;;;11.85;62.78
11124;BME280;5616;42.692;23.312;2023-04-10T08:28:54;95214.56;;;12.19;60.81
11124;BME280;5616;42.692;23.312;2023-04-10T08:31:23;95223.59;;;12.57;60.04
11124;BME280;5616;42.692;23.312;2023-04-10T08:33:51;95221.53;;;12.74;59.22
11124;BME280;5616;42.692;23.312;2023-04-10T08:36:18;95216.06;;;12.62;58.95
11124;BME280;5616;42.692;23.312;2023-04-10T08:38:45;95212.03;;;12.53;58.94
11124;BME280;5616;42.692;23.312;2023-04-10T08:41:14;95222.50;;;12.73;60.26
11124;BME280;5616;42.692;23.312;2023-04-10T08:43:42;95222.66;;;12.65;60.73
11124;BME280;5616;42.692;23.312;2023-04-10T08:46:10;95207.41;;;12.83;60.43
11124;BME280;5616;42.692;23.312;2023-04-10T08:48:45;95211.50;;;13.05;58.92
11124;BME280;5616;42.692;23.312;2023-04-10T08:51:14;95211.50;;;13.05;58.20
11124;BME280;5616;42.692;23.312;2023-04-10T08:53:43;95218.66;;;12.97;59.95
11124;BME280;5616;42.692;23.312;2023-04-10T08:56:11;95213.09;;;13.00;56.89
11124;BME280;5616;42.692;23.312;2023-04-10T08:58:40;95213.06;;;12.93;58.61
11124;BME280;5616;42.692;23.312;2023-04-10T09:01:09;95208.06;;;12.92;56.80
11124;BME280;5616;42.692;23.312;2023-04-10T09:03:37;95213.22;;;12.85;57.27
11124;BME280;5616;42.692;23.312;2023-04-10T09:06:04;95200.72;;;13.02;56.77
11124;BME280;5616;42.692;23.312;2023-04-10T09:08:31;95204.94;;;13.03;55.53
11124;BME280;5616;42.692;23.312;2023-04-10T09:10:59;95203.00;;;13.11;55.44
11124;BME280;5616;42.692;23.312;2023-04-10T09:13:36;95194.97;;;13.54;56.53
11124;BME280;5616;42.692;23.312;2023-04-10T09:16:04;95195.41;;;13.77;53.08
11124;BME280;5616;42.692;23.312;2023-04-10T09:18:43;95198.75;;;13.51;53.39
11124;BME280;5616;42.692;23.312;2023-04-10T09:21:13;95186.50;;;13.25;54.40
11124;BME280;5616;42.692;23.312;2023-04-10T09:23:40;95190.13;;;13.37;54.15
11124;BME280;5616;42.692;23.312;2023-04-10T09:26:23;95194.91;;;13.34;54.17
11124;BME280;5616;42.692;23.312;2023-04-10T09:28:57;95183.91;;;13.25;53.59
11124;BME280;5616;42.692;23.312;2023-04-10T09:31:33;95185.41;;;13.07;55.07
11124;BME280;5616;42.692;23.312;2023-04-10T09:34:10;95186.13;;;12.94;55.45
11124;BME280;5616;42.692;23.312;2023-04-10T09:36:37;95178.28;;;12.81;55.68
11124;BME280;5616;42.692;23.312;2023-04-10T09:39:06;95186.75;;;12.62;56.12
11124;BME280;5616;42.692;23.312;2023-04-10T09:41:33;95182.19;;;12.64;56.35
11124;BME280;5616;42.692;23.312;2023-04-10T09:44:06;95172.78;;;12.56;57.21
11124;BME280;5616;42.692;23.312;2023-04-10T09:46:33;95179.94;;;12.54;57.05
11124;BME280;5616;42.692;23.312;2023-04-10T09:49:00;95169.44;;;12.62;59.02
11124;BME280;5616;42.692;23.312;2023-04-10T09:51:32;95176.09;;;12.78;54.85
11124;BME280;5616;42.692;23.312;2023-04-10T09:54:00;95169.84;;;12.66;56.56
11124;BME280;5616;42.692;23.312;2023-04-10T09:56:28;95183.31;;;12.48;56.74
11124;BME280;5616;42.692;23.312;2023-04-10T09:58:57;95177.34;;;12.54;55.46
11124;BME280;5616;42.692;23.312;2023-04-10T10:01:25;95173.81;;;12.62;54.79
11124;BME280;5616;42.692;23.312;2023-04-10T10:03:53;95175.59;;;13.02;52.74
11124;BME280;5616;42.692;23.312;2023-04-10T10:06:21;95177.53;;;13.28;53.74
11124;BME280;5616;42.692;23.312;2023-04-10T10:08:49;95161.22;;;13.47;52.47
11124;BME280;5616;42.692;23.312;2023-04-10T10:11:18;95164.66;;;13.74;52.50
11124;BME280;5616;42.692;23.312;2023-04-10T10:13:50;95167.06;;;13.88;52.30
11124;BME280;5616;42.692;23.312;2023-04-10T10:16:20;95156.50;;;14.23;51.92
11124;BME280;5616;42.692;23.312;2023-04-10T10:18:51;95149.66;;;14.67;51.99
11124;BME280;5616;42.692;23.312;2023-04-10T10:21:20;95149.25;;;14.70;48.65
11124;BME280;5616;42.692;23.312;2023-04-10T10:23:49;95148.50;;;14.50;49.55
11124;BME280;5616;42.692;23.312;2023-04-10T10:26:19;95151.13;;;14.37;49.00
11124;BME280;5616;42.692;23.312;2023-04-10T10:28:49;95144.13;;;13.98;49.84
11124;BME280;5616;42.692;23.312;2023-04-10T10:31:17;95146.50;;;13.61;52.06
11124;BME280;5616;42.692;23.312;2023-04-10T10:33:44;95147.06;;;13.43;52.61
11124;BME280;5616;42.692;23.312;2023-04-10T10:36:14;95149.25;;;13.53;53.36
11124;BME280;5616;42.692;23.312;2023-04-10T10:38:47;95131.72;;;13.61;52.26
11124;BME280;5616;42.692;23.312;2023-04-10T10:41:23;95136.91;;;13.48;53.45
11124;BME280;5616;42.692;23.312;2023-04-10T10:43:57;95133.06;;;13.24;52.74
11124;BME280;5616;42.692;23.312;2023-04-10T10:46:33;95132.84;;;13.19;55.47
11124;BME280;5616;42.692;23.312;2023-04-10T10:49:01;95121.91;;;13.37;52.73
11124;BME280;5616;42.692;23.312;2023-04-10T10:51:43;95125.72;;;13.47;54.11
11124;BME280;5616;42.692;23.312;2023-04-10T10:54:27;95117.09;;;13.27;52.95
11124;BME280;5616;42.692;23.312;2023-04-10T10:56:55;95122.25;;;13.14;54.21
11124;BME280;5616;42.692;23.312;2023-04-10T10:59:52;95119.66;;;13.14;52.78
11124;BME280;5616;42.692;23.312;2023-04-10T11:02:20;95117.16;;;12.93;54.25
11124;BME280;5616;42.692;23.312;2023-04-10T11:04:47;95111.78;;;13.01;52.22
11124;BME280;5616;42.692;23.312;2023-04-10T11:07:15;95104.91;;;13.21;51.77
11124;BME280;5616;42.692;23.312;2023-04-10T11:09:43;95107.31;;;13.23;52.64
11124;BME280;5616;42.692;23.312;2023-04-10T11:12:13;95113.94;;;13.65;51.26
11124;BME280;5616;42.692;23.312;2023-04-10T11:14:41;95091.78;;;13.88;52.59
11124;BME280;5616;42.692;23.312;2023-04-10T11:17:09;95083.19;;;14.21;49.93
11124;BME280;5616;42.692;23.312;2023-04-10T11:19:58;95088.06;;;14.75;49.91
11124;BME280;5616;42.692;23.312;2023-04-10T11:22:26;95083.00;;;14.93;50.09
11124;BME280;5616;42.692;23.312;2023-04-10T11:24:58;95076.78;;;14.94;51.64
11124;BME280;5616;42.692;23.312;2023-04-10T11:27:46;95083.19;;;14.34;50.90
11124;BME280;5616;42.692;23.312;2023-04-10T11:30:31;95078.38;;;14.18;49.98
11124;BME280;5616;42.692;23.312;2023-04-10T11:32:59;95077.00;;;14.22;50.50
11124;BME280;5616;42.692;23.312;2023-04-10T11:35:26;95090.16;;;14.40;49.87
11124;BME280;5616;42.692;23.312;2023-04-10T11:38:09;95087.56;;;14.20;50.14
11124;BME280;5616;42.692;23.312;2023-04-10T11:40:52;95085.41;;;13.91;50.78
11124;BME280;5616;42.692;23.312;2023-04-10T11:43:20;95087.81;;;13.60;52.24
11124;BME280;5616;42.692;23.312;2023-04-10T11:45:47;95089.38;;;13.93;50.82
11124;BME280;5616;42.692;23.312;2023-04-10T11:48:14;95084.78;;;14.22;49.68
11124;BME280;5616;42.692;23.312;2023-04-10T11:50:42;95083.38;;;14.45;49.24
11124;BME280;5616;42.692;23.312;2023-04-10T11:53:17;95082.28;;;14.66;49.39
11124;BME280;5616;42.692;23.312;2023-04-10T11:55:44;95082.69;;;14.69;50.63
11124;BME280;5616;42.692;23.312;2023-04-10T11:58:23;95072.47;;;14.75;51.97
11124;BME280;5616;42.692;23.312;2023-04-10T12:01:01;95071.28;;;14.70;52.11
11124;BME280;5616;42.692;23.312;2023-04-10T12:03:36;95071.94;;;14.46;51.10
11124;BME280;5616;42.692;23.312;2023-04-10T12:06:04;95070.00;;;14.35;52.20
11124;BME280;5616;42.692;23.312;2023-04-10T12:08:32;95070.41;;;14.32;54.51
11124;BME280;5616;42.692;23.312;2023-04-10T12:11:01;95075.81;;;14.11;52.15
11124;BME280;5616;42.692;23.312;2023-04-10T12:13:30;95072.03;;;13.94;54.51
11124;BME280;5616;42.692;23.312;2023-04-10T12:15:58;95083.00;;;13.83;53.60
11124;BME280;5616;42.692;23.312;2023-04-10T12:18:26;95070.44;;;13.47;55.75
11124;BME280;5616;42.692;23.312;2023-04-10T12:20:54;95092.78;;;13.41;57.11
11124;BME280;5616;42.692;23.312;2023-04-10T12:23:22;95109.31;;;12.05;72.97
11124;BME280;5616;42.692;23.312;2023-04-10T12:25:49;95111.84;;;10.92;79.31
11124;BME280;5616;42.692;23.312;2023-04-10T12:28:17;95117.25;;;10.18;77.71
11124;BME280;5616;42.692;23.312;2023-04-10T12:30:47;95107.16;;;10.08;82.43
11124;BME280;5616;42.692;23.312;2023-04-10T12:33:19;95108.34;;;9.83;82.31
11124;BME280;5616;42.692;23.312;2023-04-10T12:35:46;95113.66;;;9.67;85.62
11124;BME280;5616;42.692;23.312;2023-04-10T12:38:13;95120.16;;;9.77;82.67
11124;BME280;5616;42.692;23.312;2023-04-10T12:40:58;95131.78;;;9.36;86.17
11124;BME280;5616;42.692;23.312;2023-04-10T12:43:32;95142.28;;;9.04;88.48
11124;BME280;5616;42.692;23.312;2023-04-10T12:46:00;95123.81;;;9.00;89.81
11124;BME280;5616;42.692;23.312;2023-04-10T12:48:27;95118.56;;;8.86;89.89
11124;BME280;5616;42.692;23.312;2023-04-10T12:50:54;95095.91;;;8.81;90.17
11124;BME280;5616;42.692;23.312;2023-04-10T12:53:21;95093.00;;;9.07;91.79
11124;BME280;5616;42.692;23.312;2023-04-10T12:55:56;95087.69;;;9.31;90.84
11124;BME280;5616;42.692;23.312;2023-04-10T12:58:24;95085.22;;;9.60;89.41
11124;BME280;5616;42.692;23.312;2023-04-10T13:00:53;95081.44;;;10.00;84.36
11124;BME280;5616;42.692;23.312;2023-04-10T13:03:21;95074.63;;;10.36;81.58
11124;BME280;5616;42.692;23.312;2023-04-10T13:05:49;95068.41;;;10.67;82.61
11124;BME280;5616;42.692;23.312;2023-04-10T13:08:16;95069.81;;;10.84;84.42
11124;BME280;5616;42.692;23.312;2023-04-10T13:10:43;95070.56;;;10.99;78.94
11124;BME280;5616;42.692;23.312;2023-04-10T13:13:10;95070.69;;;11.12;77.56
11124;BME280;5616;42.692;23.312;2023-04-10T13:15:38;95067.72;;;11.30;80.15
11124;BME280;5616;42.692;23.312;2023-04-10T13:18:05;95061.66;;;11.23;82.44
11124;BME280;5616;42.692;23.312;2023-04-10T13:20:34;95054.66;;;11.17;83.50
11124;BME280;5616;42.692;23.312;2023-04-10T13:23:01;95053.75;;;11.52;81.92
11124;BME280;5616;42.692;23.312;2023-04-10T13:25:30;95055.91;;;11.70;74.40
11124;BME280;5616;42.692;23.312;2023-04-10T13:27:59;95045.13;;;11.87;75.11
11124;BME280;5616;42.692;23.312;2023-04-10T13:30:26;95046.97;;;12.00;68.65